createdAt,value
2023-04-08T00:00:35.480Z,11.40
2023-04-08T00:03:22.659Z,9.88
2023-04-08T00:06:09.727Z,10.82
2023-04-08T00:08:55.620Z,11.55
2023-04-08T00:11:44.817Z,10.13
2023-04-08T00:14:30.741Z,10.95
2023-04-08T00:17:17.063Z,20.45
2023-04-08T00:20:05.083Z,16.42
2023-04-08T00:22:51.634Z,15.02
2023-04-08T00:25:37.792Z,15.05
2023-04-08T00:28:24.374Z,14.10
2023-04-08T00:31:10.790Z,13.50
2023-04-08T00:33:56.925Z,15.13
2023-04-08T00:36:43.184Z,13.63
2023-04-08T00:39:29.566Z,14.18
2023-04-08T00:42:15.094Z,13.73
2023-04-08T00:45:01.960Z,12.77
2023-04-08T00:47:52.976Z,11.57
2023-04-08T00:50:39.515Z,11.88
2023-04-08T00:53:25.847Z,11.50
2023-04-08T00:56:12.152Z,11.98
2023-04-08T00:59:00.928Z,13.10
2023-04-08T01:02:02.065Z,11.90
2023-04-08T01:05:09.720Z,13.05
2023-04-08T01:07:56.598Z,11.48
2023-04-08T01:10:46.023Z,15.30
2023-04-08T01:13:36.225Z,13.80
2023-04-08T01:16:23.056Z,13.77
2023-04-08T01:19:10.958Z,15.43
2023-04-08T01:22:23.548Z,14.10
2023-04-08T01:25:39.404Z,13.55
2023-04-08T01:28:27.553Z,13.00
2023-04-08T01:31:13.916Z,12.88
2023-04-08T01:34:01.391Z,12.75
2023-04-08T01:36:48.087Z,12.52
2023-04-08T01:39:35.482Z,12.55
2023-04-08T01:42:27.998Z,12.98
2023-04-08T01:45:14.804Z,13.05
2023-04-08T01:48:01.829Z,12.30
2023-04-08T01:50:48.410Z,12.68
2023-04-08T01:53:34.557Z,11.85
2023-04-08T01:56:22.680Z,13.05
2023-04-08T01:59:12.526Z,14.48
2023-04-08T02:02:01.033Z,14.45
2023-04-08T02:04:48.398Z,14.02
2023-04-08T02:07:34.271Z,13.43
2023-04-08T02:10:20.390Z,14.40
2023-04-08T02:13:06.877Z,13.52
2023-04-08T02:15:58.075Z,13.45
2023-04-08T02:18:46.491Z,13.43
2023-04-08T02:21:41.496Z,15.38
2023-04-08T02:24:28.581Z,38.10
2023-04-08T02:27:16.033Z,21.75
2023-04-08T02:30:07.322Z,16.58
2023-04-08T02:32:54.697Z,16.67
2023-04-08T02:35:41.945Z,17.15
2023-04-08T02:38:30.842Z,18.83
2023-04-08T02:41:16.864Z,14.57
2023-04-08T02:44:03.113Z,15.20
2023-04-08T02:46:49.988Z,22.38
2023-04-08T02:49:36.839Z,36.15
2023-04-08T02:52:22.843Z,42.78
2023-04-08T02:55:10.121Z,29.65
2023-04-08T02:57:56.102Z,35.15
2023-04-08T03:00:43.144Z,21.25
2023-04-08T03:03:31.595Z,16.10
2023-04-08T03:06:19.206Z,16.77
2023-04-08T03:09:06.090Z,19.02
2023-04-08T03:11:55.075Z,18.23
2023-04-08T03:14:41.216Z,16.80
2023-04-08T03:17:27.767Z,17.23
2023-04-08T03:20:13.519Z,17.60
2023-04-08T03:23:01.181Z,17.02
2023-04-08T03:25:47.615Z,18.45
2023-04-08T03:28:33.811Z,18.10
2023-04-08T03:31:21.396Z,17.92
2023-04-08T03:34:08.061Z,18.33
2023-04-08T03:36:54.190Z,18.25
2023-04-08T03:39:40.116Z,18.00
2023-04-08T03:42:26.033Z,20.95
2023-04-08T03:45:12.262Z,24.42
2023-04-08T03:47:58.454Z,25.77
2023-04-08T03:50:45.125Z,27.42
2023-04-08T03:53:31.029Z,30.40
2023-04-08T03:56:17.719Z,27.38
2023-04-08T03:59:03.653Z,26.35
2023-04-08T04:01:51.543Z,25.77
2023-04-08T04:04:38.211Z,24.27
2023-04-08T04:07:25.140Z,25.45
2023-04-08T04:10:11.101Z,23.48
2023-04-08T04:12:57.572Z,22.38
2023-04-08T04:15:43.280Z,19.70
2023-04-08T04:18:29.414Z,18.55
2023-04-08T04:21:18.176Z,16.70
2023-04-08T04:24:05.479Z,15.18
2023-04-08T04:26:51.149Z,15.57
2023-04-08T04:29:37.491Z,16.30
2023-04-08T04:32:23.786Z,15.85
2023-04-08T04:35:11.442Z,16.05
2023-04-08T04:37:57.671Z,15.82
2023-04-08T04:40:44.605Z,14.30
2023-04-08T04:43:30.512Z,15.98
2023-04-08T04:46:16.962Z,15.25
2023-04-08T04:49:03.183Z,16.05
2023-04-08T04:51:49.467Z,15.60
2023-04-08T04:54:35.753Z,15.70
2023-04-08T04:57:22.841Z,14.80
2023-04-08T05:00:09.831Z,15.27
2023-04-08T05:02:56.862Z,14.52
2023-04-08T05:05:42.810Z,14.68
2023-04-08T05:08:29.395Z,15.75
2023-04-08T05:11:15.252Z,16.88
2023-04-08T05:14:01.685Z,17.00
2023-04-08T05:16:48.303Z,16.27
2023-04-08T05:19:34.801Z,16.70
2023-04-08T05:22:20.735Z,20.73
2023-04-08T05:25:06.982Z,16.30
2023-04-08T05:27:53.561Z,16.65
2023-04-08T05:30:39.865Z,16.48
2023-04-08T05:33:26.835Z,17.63
2023-04-08T05:36:15.678Z,17.48
2023-04-08T05:39:04.733Z,21.50
2023-04-08T05:41:53.792Z,18.02
2023-04-08T05:44:41.487Z,18.23
2023-04-08T05:47:27.893Z,25.55
2023-04-08T05:50:13.830Z,40.50
2023-04-08T05:53:00.106Z,29.90
2023-04-08T05:55:46.053Z,18.30
2023-04-08T05:58:32.979Z,18.33
2023-04-08T06:01:18.773Z,30.15
2023-04-08T06:04:05.608Z,19.08
2023-04-08T06:06:51.773Z,19.55
2023-04-08T06:09:38.742Z,22.52
2023-04-08T06:12:24.823Z,16.92
2023-04-08T06:15:11.095Z,17.70
2023-04-08T06:17:57.047Z,18.80
2023-04-08T06:20:44.000Z,18.75
2023-04-08T06:23:30.642Z,17.35
2023-04-08T06:26:17.232Z,19.20
2023-04-08T06:29:04.146Z,18.67
2023-04-08T06:31:51.305Z,17.35
2023-04-08T06:34:37.240Z,17.42
2023-04-08T06:37:23.574Z,19.15
2023-04-08T06:40:09.434Z,18.85
2023-04-08T06:42:55.908Z,17.63
2023-04-08T06:45:53.606Z,19.73
2023-04-08T06:48:40.745Z,20.00
2023-04-08T06:51:28.058Z,26.55
2023-04-08T06:54:14.617Z,25.75
2023-04-08T06:57:00.358Z,54.20
2023-04-08T06:59:47.108Z,51.30
2023-04-08T07:02:33.093Z,27.38
2023-04-08T07:05:19.834Z,23.10
2023-04-08T07:08:06.525Z,19.33
2023-04-08T07:10:53.019Z,28.98
2023-04-08T07:13:38.712Z,20.92
2023-04-08T07:16:25.652Z,18.95
2023-04-08T07:19:12.081Z,22.75
2023-04-08T07:21:58.545Z,29.80
2023-04-08T07:24:49.821Z,26.60
2023-04-08T07:27:36.741Z,20.77
2023-04-08T07:30:22.659Z,17.00
2023-04-08T07:33:09.056Z,19.92
2023-04-08T07:35:54.672Z,19.30
2023-04-08T07:38:41.018Z,18.95
2023-04-08T07:41:27.135Z,17.38
2023-04-08T07:44:17.242Z,17.30
2023-04-08T07:47:03.088Z,14.52
2023-04-08T07:49:49.160Z,13.38
2023-04-08T07:52:35.041Z,14.70
2023-04-08T07:55:21.419Z,16.42
2023-04-08T07:58:07.715Z,17.73
2023-04-08T08:00:54.034Z,23.65
2023-04-08T08:03:39.960Z,17.50
2023-04-08T08:06:27.819Z,15.23
2023-04-08T08:09:13.807Z,15.07
2023-04-08T08:12:00.127Z,17.55
2023-04-08T08:14:46.047Z,15.80
2023-04-08T08:17:34.002Z,17.35
2023-04-08T08:20:19.925Z,17.52
2023-04-08T08:23:06.458Z,16.25
2023-04-08T08:26:01.575Z,16.63
2023-04-08T08:28:47.550Z,17.98
2023-04-08T08:31:33.167Z,18.42
2023-04-08T08:34:19.430Z,18.42
2023-04-08T08:37:05.560Z,16.35
2023-04-08T08:39:51.907Z,17.52
2023-04-08T08:42:38.393Z,16.25
2023-04-08T08:45:24.993Z,20.10
2023-04-08T08:48:11.580Z,14.68
2023-04-08T08:50:58.230Z,16.92
2023-04-08T08:53:47.442Z,17.13
2023-04-08T08:56:34.597Z,16.73
2023-04-08T08:59:20.646Z,17.17
2023-04-08T09:02:24.643Z,21.67
2023-04-08T09:05:10.568Z,20.63
2023-04-08T09:07:57.516Z,17.85
2023-04-08T09:10:43.540Z,17.10
2023-04-08T09:13:36.637Z,15.77
2023-04-08T09:16:23.597Z,15.77
2023-04-08T09:19:11.228Z,15.73
2023-04-08T09:22:10.911Z,17.50
2023-04-08T09:24:58.331Z,18.90
2023-04-08T09:27:45.405Z,15.30
2023-04-08T09:30:32.614Z,17.27
2023-04-08T09:33:18.461Z,17.02
2023-04-08T09:36:05.374Z,17.23
2023-04-08T09:38:51.292Z,16.92
2023-04-08T09:41:38.710Z,16.80
2023-04-08T09:44:25.013Z,15.20
2023-04-08T09:47:20.709Z,16.45
2023-04-08T09:50:10.053Z,17.30
2023-04-08T09:53:21.009Z,17.45
2023-04-08T09:56:11.163Z,16.08
2023-04-08T09:59:05.290Z,17.20
2023-04-08T10:01:54.438Z,15.85
2023-04-08T10:04:46.191Z,16.77
2023-04-08T10:07:31.988Z,17.38
2023-04-08T10:10:18.751Z,18.73
2023-04-08T10:13:04.893Z,16.10
2023-04-08T10:15:53.153Z,19.80
2023-04-08T10:18:39.500Z,18.00
2023-04-08T10:22:01.821Z,16.05
2023-04-08T10:25:17.118Z,18.25
2023-04-08T10:28:17.847Z,17.63
2023-04-08T10:31:03.705Z,18.67
2023-04-08T10:33:50.097Z,18.52
2023-04-08T10:36:36.109Z,17.92
2023-04-08T10:39:22.890Z,18.02
2023-04-08T10:42:08.933Z,17.63
2023-04-08T10:44:55.260Z,18.13
2023-04-08T10:47:41.138Z,15.93
2023-04-08T10:50:28.189Z,17.27
2023-04-08T10:53:14.360Z,17.98
2023-04-08T10:56:13.485Z,17.35
2023-04-08T10:58:59.956Z,17.42
2023-04-08T11:01:46.869Z,19.08
2023-04-08T11:04:33.481Z,16.25
2023-04-08T11:07:21.495Z,17.45
2023-04-08T11:10:11.193Z,17.58
2023-04-08T11:12:58.543Z,16.85
2023-04-08T11:18:59.134Z,17.50
2023-04-08T11:21:46.233Z,18.63
2023-04-08T11:26:12.662Z,17.20
2023-04-08T11:29:26.471Z,18.20
2023-04-08T11:32:13.367Z,18.27
2023-04-08T11:35:06.248Z,16.73
2023-04-08T11:37:52.619Z,17.20
2023-04-08T11:40:38.658Z,18.05
2023-04-08T11:43:26.527Z,16.58
2023-04-08T11:46:13.826Z,17.33
2023-04-08T11:49:07.970Z,15.63
2023-04-08T11:52:14.369Z,21.90
2023-04-08T11:55:00.974Z,19.27
2023-04-08T11:57:46.967Z,17.77
2023-04-08T12:00:34.284Z,16.98
2023-04-08T12:03:25.057Z,20.50
2023-04-08T12:06:11.804Z,16.05
2023-04-08T12:14:18.607Z,15.85
2023-04-08T12:17:04.692Z,18.08
2023-04-08T12:20:17.396Z,15.50
2023-04-08T12:23:08.997Z,16.98
2023-04-08T12:31:24.334Z,15.25
2023-04-08T12:35:04.694Z,17.35
2023-04-08T12:37:51.151Z,15.10
2023-04-08T12:41:30.084Z,16.52
2023-04-08T12:44:16.290Z,14.10
2023-04-08T12:47:03.118Z,17.38
2023-04-08T12:51:06.192Z,22.63
2023-04-08T12:54:00.818Z,14.05
2023-04-08T12:56:53.052Z,15.18
2023-04-08T12:59:40.286Z,17.75
2023-04-08T13:02:36.253Z,16.05
2023-04-08T13:05:55.053Z,15.98
2023-04-08T13:08:42.739Z,17.50
2023-04-08T13:15:58.141Z,13.02
2023-04-08T13:19:09.456Z,11.55
2023-04-08T13:21:56.160Z,14.15
2023-04-08T13:24:42.483Z,13.40
2023-04-08T13:27:29.034Z,14.50
2023-04-08T13:30:16.223Z,11.10
2023-04-08T13:38:36.954Z,12.77
2023-04-08T13:41:28.233Z,14.10
2023-04-08T13:49:32.213Z,15.82
2023-04-08T13:52:18.481Z,12.48
2023-04-08T13:56:45.754Z,14.20
2023-04-08T13:59:34.654Z,15.52
2023-04-08T14:02:46.384Z,14.07
2023-04-08T14:05:32.954Z,16.20
2023-04-08T14:08:44.030Z,13.23
2023-04-08T14:12:01.972Z,14.77
2023-04-08T14:14:51.878Z,24.15
2023-04-08T14:18:54.908Z,27.00
2023-04-08T14:28:42.095Z,13.70
2023-04-08T14:31:28.659Z,14.25
2023-04-08T14:38:42.429Z,14.82
2023-04-08T14:41:28.435Z,14.10
2023-04-08T14:44:14.900Z,12.07
2023-04-08T14:47:00.683Z,12.10
2023-04-08T14:55:55.082Z,18.33
2023-04-08T15:00:24.681Z,16.52
2023-04-08T15:04:03.062Z,14.65
2023-04-08T15:08:32.810Z,14.32
2023-04-08T15:11:20.908Z,25.60
2023-04-08T15:14:58.342Z,14.05
2023-04-08T15:45:14.084Z,31.63
2023-04-08T15:53:51.869Z,12.30
2023-04-08T15:56:37.798Z,17.63
2023-04-08T15:59:49.204Z,17.60
2023-04-08T16:02:35.815Z,15.98
2023-04-08T16:11:18.309Z,13.02
2023-04-08T16:14:05.286Z,11.48
2023-04-08T16:17:42.996Z,16.55
2023-04-08T16:22:13.062Z,16.08
2023-04-08T16:34:47.868Z,14.88
2023-04-08T16:37:34.928Z,14.43
2023-04-08T16:40:21.915Z,28.92
2023-04-08T16:43:08.601Z,19.05
2023-04-08T16:45:54.806Z,23.98
2023-04-08T16:48:42.249Z,19.58
2023-04-08T16:51:29.349Z,19.20
2023-04-08T16:54:15.491Z,30.92
2023-04-08T16:57:01.485Z,21.67
2023-04-08T16:59:54.152Z,20.08
2023-04-08T17:02:55.940Z,22.70
2023-04-08T17:05:42.402Z,23.17
2023-04-08T17:08:29.395Z,18.13
2023-04-08T17:11:15.709Z,19.42
2023-04-08T17:14:03.928Z,21.55
2023-04-08T17:16:50.652Z,24.25
2023-04-08T17:19:39.350Z,117.45
2023-04-08T17:22:26.766Z,103.07
2023-04-08T17:25:13.579Z,32.28
2023-04-08T17:27:59.581Z,25.48
2023-04-08T17:30:45.830Z,32.20
2023-04-08T17:33:33.989Z,28.20
2023-04-08T17:36:20.334Z,30.48
2023-04-08T17:39:06.768Z,31.15
2023-04-08T17:41:53.243Z,33.10
2023-04-08T17:44:42.352Z,41.72
2023-04-08T17:47:28.682Z,40.95
2023-04-08T17:50:15.094Z,42.28
2023-04-08T17:53:01.617Z,42.80
2023-04-08T17:55:47.497Z,40.75
2023-04-08T17:58:34.502Z,36.38
2023-04-08T18:01:22.414Z,34.65
2023-04-08T18:04:10.468Z,33.33
2023-04-08T18:06:57.278Z,32.63
2023-04-08T18:09:44.548Z,31.92
2023-04-08T18:12:31.183Z,29.08
2023-04-08T18:15:18.469Z,30.70
2023-04-08T18:18:04.540Z,30.23
2023-04-08T18:20:51.890Z,30.52
2023-04-08T18:23:38.103Z,32.58
2023-04-08T18:26:25.365Z,33.47
2023-04-08T18:29:11.842Z,31.45
2023-04-08T18:31:58.130Z,38.28
2023-04-08T18:34:44.434Z,38.63
2023-04-08T18:37:31.366Z,42.45
2023-04-08T18:40:17.962Z,43.20
2023-04-08T18:43:05.273Z,48.78
2023-04-08T18:45:51.258Z,50.30
2023-04-08T18:48:38.724Z,49.80
2023-04-08T18:51:27.243Z,49.53
2023-04-08T18:54:13.369Z,48.00
2023-04-08T18:56:59.780Z,47.63
2023-04-08T18:59:48.943Z,48.97
2023-04-08T19:02:35.137Z,49.40
2023-04-08T19:05:23.190Z,46.30
2023-04-08T19:08:09.473Z,47.03
2023-04-08T19:10:55.609Z,46.50
2023-04-08T19:13:42.186Z,48.50
2023-04-08T19:16:28.380Z,46.92
2023-04-08T19:19:14.161Z,46.58
2023-04-08T19:22:02.973Z,48.03
2023-04-08T19:24:49.937Z,45.78
2023-04-08T19:27:36.110Z,46.35
2023-04-08T19:30:21.861Z,46.75
2023-04-08T19:33:08.958Z,45.25
2023-04-08T19:35:56.431Z,48.33
2023-04-08T19:38:44.428Z,48.85
2023-04-08T19:41:30.768Z,47.20
2023-04-08T19:44:18.457Z,46.28
2023-04-08T19:47:07.758Z,45.92
2023-04-08T19:49:54.409Z,45.83
2023-04-08T19:52:40.244Z,43.47
2023-04-08T19:55:26.794Z,43.88
2023-04-08T19:58:13.231Z,38.88
2023-04-08T20:01:00.299Z,40.80
2023-04-08T20:03:50.489Z,38.90
2023-04-08T20:06:37.491Z,37.70
2023-04-08T20:09:23.507Z,37.92
2023-04-08T20:12:10.073Z,37.42
2023-04-08T20:14:56.268Z,36.38
2023-04-08T20:17:43.404Z,38.72
2023-04-08T20:20:30.099Z,37.85
2023-04-08T20:23:19.441Z,38.47
2023-04-08T20:26:06.629Z,37.00
2023-04-08T20:28:54.536Z,35.25
2023-04-08T20:31:46.341Z,34.55
2023-04-08T20:34:32.520Z,36.15
2023-04-08T20:37:18.484Z,37.60
2023-04-08T20:40:05.488Z,37.28
2023-04-08T20:42:51.101Z,36.85
2023-04-08T20:45:38.154Z,36.83
2023-04-08T20:48:25.465Z,36.95
2023-04-08T20:51:12.318Z,38.78
2023-04-08T20:53:59.339Z,37.03
2023-04-08T20:56:46.481Z,35.35
2023-04-08T20:59:33.500Z,35.65
2023-04-08T21:02:21.689Z,33.28
2023-04-08T21:05:08.294Z,33.45
2023-04-08T21:07:56.259Z,31.88
2023-04-08T21:10:42.414Z,31.35
2023-04-08T21:13:28.894Z,30.00
2023-04-08T21:16:15.535Z,28.75
2023-04-08T21:19:02.224Z,31.48
2023-04-08T21:21:47.955Z,31.88
2023-04-08T21:24:34.219Z,30.83
2023-04-08T21:27:21.252Z,33.17
2023-04-08T21:30:08.089Z,34.47
2023-04-08T21:32:54.255Z,34.10
2023-04-08T21:35:41.119Z,33.72
2023-04-08T21:38:27.543Z,31.60
2023-04-08T21:41:13.698Z,30.35
2023-04-08T21:43:59.621Z,29.60
2023-04-08T21:46:49.165Z,30.33
2023-04-08T21:49:36.544Z,31.02
2023-04-08T21:52:23.299Z,32.88
2023-04-08T21:55:09.539Z,33.05
2023-04-08T21:57:55.843Z,33.50
2023-04-08T22:00:41.738Z,36.40
2023-04-08T22:03:28.456Z,37.28
2023-04-08T22:06:29.093Z,41.65
2023-04-08T22:09:17.895Z,39.88
2023-04-08T22:12:04.928Z,38.45
2023-04-08T22:14:51.148Z,39.83
2023-04-08T22:17:37.092Z,40.15
2023-04-08T22:20:23.612Z,39.40
2023-04-08T22:23:09.523Z,41.00
2023-04-08T22:25:55.486Z,42.35
2023-04-08T22:28:42.636Z,39.83
2023-04-08T22:31:28.777Z,37.47
2023-04-08T22:34:14.767Z,38.60
2023-04-08T22:37:02.127Z,38.05
2023-04-08T22:39:47.740Z,39.80
2023-04-08T22:42:34.068Z,39.55
2023-04-08T22:45:20.037Z,38.10
2023-04-08T22:48:06.590Z,37.25
2023-04-08T22:50:53.193Z,38.85
2023-04-08T22:53:39.692Z,38.78
2023-04-08T22:56:27.772Z,38.28
2023-04-08T22:59:13.611Z,38.53
2023-04-08T23:01:59.821Z,38.15
2023-04-08T23:04:46.772Z,39.30
2023-04-08T23:07:32.675Z,39.90
2023-04-08T23:10:19.336Z,39.95
2023-04-08T23:13:05.181Z,38.63
2023-04-08T23:15:51.718Z,39.13
2023-04-08T23:18:37.874Z,37.17
2023-04-08T23:21:23.925Z,34.65
2023-04-08T23:24:10.036Z,34.90
2023-04-08T23:26:56.961Z,33.13
2023-04-08T23:29:43.280Z,32.22
2023-04-08T23:32:30.443Z,32.80
2023-04-08T23:35:17.850Z,31.95
2023-04-08T23:38:04.449Z,31.00
2023-04-08T23:40:51.705Z,30.05
2023-04-08T23:43:38.015Z,30.83
2023-04-08T23:46:23.912Z,29.40
2023-04-08T23:49:10.171Z,27.98
2023-04-08T23:51:56.558Z,28.17
2023-04-08T23:54:42.885Z,28.05
2023-04-08T23:57:28.662Z,28.75
